메인 페이지
METAR-TAF:

METAR-TAF

공항 :

Lossiemouth, 스코틀랜드

위도: 57-43N, 경도: 003-19W, 고도: 13m

현재 날씨관측

예보는 41분 전, 07:20시(UTC)에 발표되었습니다.
13kt
온도 14°C
습도 67%
기압 1017 hPa
시정 10km 이상
고도 2000ft 상공 구름 조금

METAR: EGQS 200720Z 26013KT 9999 FEW020 14/08 Q1017 NOSIG RMK BLU BLU

시각: 09:01 (08:01 UTC)

예보

예보는 38분 전, 07:23시(UTC)에 발표되었습니다.
예보 대상 시간: 20일 07시부터 20일 24시까지 (UTC)
서북서12kt
시정 10km 이상
고도 2000ft 상공 구름 조금
확률 30% :
일시적
20일 07시부터 20일 08시까지 (UTC)
고도 2000ft 상공 구름 보통

TAF: EGQS 200723Z 2007/2024 29012KT 9999 FEW020 PROB30 TEMPO 2007/2008 SCT020

4,000개 이상의 공항 관측 자료 및 예보 (METAR 및 TAF 보고).

지도상에서 검색 가능한 기상관측소가 노란 점과 빨간 점으로 표시되어 있습니다.

기상관측소 명을 보려면 표시 위로 마우스를 이동하세요.

날씨 관측과 예보를 보려면 클릭하세요.

지도 변경 : 확대하려면 엑스 표시가 있는 녹색 버튼, 축소하려면 빼기 표시가 있는 녹색 버튼, 다음 페이지의 지도를 보려면 녹색 화살표를 클릭하세요.


METAR-TAF: